sensor_id;sensor_type;location;lat;lon;timestamp;P1;durP1;ratioP1;P2;durP2;ratioP2
49890;SDS011;35780;55.568;37.492;2023-04-01T00:01:30;58.72;;;26.58;;
49890;SDS011;35780;55.568;37.492;2023-04-01T00:03:55;62.47;;;25.52;;
49890;SDS011;35780;55.568;37.492;2023-04-01T00:06:21;63.97;;;25.92;;
49890;SDS011;35780;55.568;37.492;2023-04-01T00:08:47;102.95;;;29.70;;
49890;SDS011;35780;55.568;37.492;2023-04-01T00:11:13;99.28;;;29.05;;
49890;SDS011;35780;55.568;37.492;2023-04-01T00:13:40;49.03;;;24.50;;
49890;SDS011;35780;55.568;37.492;2023-04-01T00:16:06;50.70;;;26.05;;
49890;SDS011;35780;55.568;37.492;2023-04-01T00:18:32;52.20;;;26.17;;
49890;SDS011;35780;55.568;37.492;2023-04-01T00:20:57;48.08;;;26.17;;
49890;SDS011;35780;55.568;37.492;2023-04-01T00:23:23;41.97;;;21.50;;
49890;SDS011;35780;55.568;37.492;2023-04-01T00:25:48;39.90;;;22.67;;
49890;SDS011;35780;55.568;37.492;2023-04-01T00:28:16;42.70;;;23.15;;
49890;SDS011;35780;55.568;37.492;2023-04-01T00:30:42;41.40;;;22.48;;
49890;SDS011;35780;55.568;37.492;2023-04-01T00:33:07;35.92;;;22.05;;
49890;SDS011;35780;55.568;37.492;2023-04-01T00:35:33;37.15;;;21.65;;
49890;SDS011;35780;55.568;37.492;2023-04-01T00:37:59;36.45;;;21.27;;
49890;SDS011;35780;55.568;37.492;2023-04-01T00:43:01;71.18;;;26.27;;
49890;SDS011;35780;55.568;37.492;2023-04-01T00:45:32;61.17;;;26.58;;
49890;SDS011;35780;55.568;37.492;2023-04-01T00:47:59;57.00;;;24.00;;
49890;SDS011;35780;55.568;37.492;2023-04-01T00:50:28;53.40;;;23.98;;
49890;SDS011;35780;55.568;37.492;2023-04-01T00:52:54;82.20;;;25.23;;
49890;SDS011;35780;55.568;37.492;2023-04-01T00:55:20;56.53;;;24.35;;
49890;SDS011;35780;55.568;37.492;2023-04-01T00:57:46;38.13;;;21.42;;
49890;SDS011;35780;55.568;37.492;2023-04-01T01:00:13;37.10;;;20.70;;
49890;SDS011;35780;55.568;37.492;2023-04-01T01:02:43;50.95;;;24.00;;
49890;SDS011;35780;55.568;37.492;2023-04-01T01:05:14;39.45;;;20.75;;
49890;SDS011;35780;55.568;37.492;2023-04-01T01:08:01;36.90;;;21.38;;
49890;SDS011;35780;55.568;37.492;2023-04-01T01:10:34;52.67;;;24.67;;
49890;SDS011;35780;55.568;37.492;2023-04-01T01:16:00;60.58;;;26.33;;
49890;SDS011;35780;55.568;37.492;2023-04-01T01:18:53;39.20;;;22.58;;
49890;SDS011;35780;55.568;37.492;2023-04-01T01:27:02;42.87;;;22.90;;
49890;SDS011;35780;55.568;37.492;2023-04-01T01:29:44;55.17;;;25.52;;
49890;SDS011;35780;55.568;37.492;2023-04-01T01:37:51;40.00;;;20.83;;
49890;SDS011;35780;55.568;37.492;2023-04-01T01:40:19;38.10;;;21.88;;
49890;SDS011;35780;55.568;37.492;2023-04-01T01:42:47;34.15;;;19.95;;
49890;SDS011;35780;55.568;37.492;2023-04-01T01:45:15;39.67;;;21.27;;
49890;SDS011;35780;55.568;37.492;2023-04-01T01:47:43;44.47;;;24.15;;
49890;SDS011;35780;55.568;37.492;2023-04-01T01:50:09;37.78;;;20.85;;
49890;SDS011;35780;55.568;37.492;2023-04-01T01:52:34;43.78;;;22.85;;
49890;SDS011;35780;55.568;37.492;2023-04-01T01:55:00;41.92;;;22.40;;
49890;SDS011;35780;55.568;37.492;2023-04-01T01:57:27;40.78;;;22.50;;
49890;SDS011;35780;55.568;37.492;2023-04-01T02:00:02;41.53;;;24.10;;
49890;SDS011;35780;55.568;37.492;2023-04-01T02:02:30;38.80;;;21.10;;
49890;SDS011;35780;55.568;37.492;2023-04-01T02:04:57;47.42;;;23.40;;
49890;SDS011;35780;55.568;37.492;2023-04-01T02:07:30;40.03;;;22.38;;
49890;SDS011;35780;55.568;37.492;2023-04-01T02:09:57;47.25;;;23.58;;
49890;SDS011;35780;55.568;37.492;2023-04-01T02:12:23;41.90;;;23.15;;
49890;SDS011;35780;55.568;37.492;2023-04-01T02:14:51;42.35;;;23.08;;
49890;SDS011;35780;55.568;37.492;2023-04-01T02:17:22;44.15;;;23.77;;
49890;SDS011;35780;55.568;37.492;2023-04-01T02:19:56;38.93;;;20.23;;
49890;SDS011;35780;55.568;37.492;2023-04-01T02:22:34;47.87;;;22.33;;
49890;SDS011;35780;55.568;37.492;2023-04-01T02:25:05;42.20;;;20.90;;
49890;SDS011;35780;55.568;37.492;2023-04-01T02:27:35;33.95;;;18.00;;
49890;SDS011;35780;55.568;37.492;2023-04-01T02:30:01;35.15;;;20.08;;
49890;SDS011;35780;55.568;37.492;2023-04-01T02:32:28;36.78;;;19.92;;
49890;SDS011;35780;55.568;37.492;2023-04-01T02:34:54;41.78;;;21.00;;
49890;SDS011;35780;55.568;37.492;2023-04-01T02:37:21;35.05;;;19.75;;
49890;SDS011;35780;55.568;37.492;2023-04-01T02:39:46;52.38;;;25.42;;
49890;SDS011;35780;55.568;37.492;2023-04-01T02:42:13;63.13;;;32.55;;
49890;SDS011;35780;55.568;37.492;2023-04-01T02:44:38;58.38;;;30.08;;
49890;SDS011;35780;55.568;37.492;2023-04-01T02:47:04;49.13;;;24.30;;
49890;SDS011;35780;55.568;37.492;2023-04-01T02:49:30;57.03;;;26.90;;
49890;SDS011;35780;55.568;37.492;2023-04-01T02:51:55;49.45;;;25.83;;
49890;SDS011;35780;55.568;37.492;2023-04-01T02:54:21;66.22;;;30.23;;
49890;SDS011;35780;55.568;37.492;2023-04-01T02:56:46;49.25;;;25.08;;
49890;SDS011;35780;55.568;37.492;2023-04-01T02:59:12;41.83;;;21.05;;
49890;SDS011;35780;55.568;37.492;2023-04-01T03:01:37;40.42;;;20.48;;
49890;SDS011;35780;55.568;37.492;2023-04-01T03:04:03;49.20;;;22.20;;
49890;SDS011;35780;55.568;37.492;2023-04-01T03:06:29;41.72;;;19.90;;
49890;SDS011;35780;55.568;37.492;2023-04-01T03:08:55;53.03;;;22.63;;
49890;SDS011;35780;55.568;37.492;2023-04-01T03:11:20;51.22;;;22.45;;
49890;SDS011;35780;55.568;37.492;2023-04-01T03:13:46;45.13;;;19.83;;
49890;SDS011;35780;55.568;37.492;2023-04-01T03:16:12;50.78;;;20.33;;
49890;SDS011;35780;55.568;37.492;2023-04-01T03:18:37;52.45;;;21.75;;
49890;SDS011;35780;55.568;37.492;2023-04-01T03:21:16;71.00;;;23.90;;
49890;SDS011;35780;55.568;37.492;2023-04-01T03:23:43;50.90;;;21.92;;
49890;SDS011;35780;55.568;37.492;2023-04-01T03:26:08;48.95;;;22.48;;
49890;SDS011;35780;55.568;37.492;2023-04-01T03:28:34;85.80;;;25.55;;
49890;SDS011;35780;55.568;37.492;2023-04-01T03:31:00;87.95;;;24.95;;
49890;SDS011;35780;55.568;37.492;2023-04-01T03:33:25;47.35;;;23.60;;
49890;SDS011;35780;55.568;37.492;2023-04-01T03:35:51;74.80;;;24.48;;
49890;SDS011;35780;55.568;37.492;2023-04-01T03:38:17;87.75;;;25.02;;
49890;SDS011;35780;55.568;37.492;2023-04-01T03:40:43;93.63;;;25.77;;
49890;SDS011;35780;55.568;37.492;2023-04-01T03:43:09;53.35;;;23.92;;
49890;SDS011;35780;55.568;37.492;2023-04-01T03:45:35;37.63;;;19.63;;
49890;SDS011;35780;55.568;37.492;2023-04-01T03:48:01;43.75;;;20.88;;
49890;SDS011;35780;55.568;37.492;2023-04-01T03:50:26;48.13;;;21.33;;
49890;SDS011;35780;55.568;37.492;2023-04-01T03:52:52;50.53;;;22.38;;
49890;SDS011;35780;55.568;37.492;2023-04-01T03:55:17;53.00;;;22.02;;
49890;SDS011;35780;55.568;37.492;2023-04-01T03:57:43;60.50;;;23.58;;
49890;SDS011;35780;55.568;37.492;2023-04-01T04:00:09;58.45;;;23.27;;
49890;SDS011;35780;55.568;37.492;2023-04-01T04:02:35;61.95;;;25.05;;
49890;SDS011;35780;55.568;37.492;2023-04-01T04:05:00;42.00;;;20.90;;
49890;SDS011;35780;55.568;37.492;2023-04-01T04:07:28;53.28;;;22.15;;
49890;SDS011;35780;55.568;37.492;2023-04-01T04:09:53;38.13;;;20.73;;
49890;SDS011;35780;55.568;37.492;2023-04-01T04:12:19;36.65;;;19.73;;
49890;SDS011;35780;55.568;37.492;2023-04-01T04:14:44;35.17;;;18.40;;
49890;SDS011;35780;55.568;37.492;2023-04-01T04:17:10;45.85;;;23.00;;
49890;SDS011;35780;55.568;37.492;2023-04-01T04:19:41;53.55;;;22.88;;
49890;SDS011;35780;55.568;37.492;2023-04-01T04:22:07;41.72;;;20.15;;
49890;SDS011;35780;55.568;37.492;2023-04-01T04:24:34;38.72;;;21.40;;
49890;SDS011;35780;55.568;37.492;2023-04-01T04:27:00;42.75;;;21.55;;
49890;SDS011;35780;55.568;37.492;2023-04-01T04:29:25;52.25;;;21.70;;
49890;SDS011;35780;55.568;37.492;2023-04-01T04:31:51;55.72;;;22.92;;
49890;SDS011;35780;55.568;37.492;2023-04-01T04:34:16;39.03;;;20.13;;
49890;SDS011;35780;55.568;37.492;2023-04-01T04:36:43;45.08;;;18.92;;
49890;SDS011;35780;55.568;37.492;2023-04-01T04:39:10;45.55;;;22.80;;
49890;SDS011;35780;55.568;37.492;2023-04-01T04:41:36;85.40;;;23.30;;
49890;SDS011;35780;55.568;37.492;2023-04-01T04:44:02;57.30;;;22.33;;
49890;SDS011;35780;55.568;37.492;2023-04-01T04:46:28;59.65;;;22.38;;
49890;SDS011;35780;55.568;37.492;2023-04-01T04:48:53;55.45;;;21.77;;
49890;SDS011;35780;55.568;37.492;2023-04-01T04:51:19;54.17;;;20.65;;
49890;SDS011;35780;55.568;37.492;2023-04-01T04:53:46;46.80;;;21.58;;
49890;SDS011;35780;55.568;37.492;2023-04-01T04:56:12;109.10;;;32.22;;
49890;SDS011;35780;55.568;37.492;2023-04-01T04:58:38;49.97;;;22.10;;
49890;SDS011;35780;55.568;37.492;2023-04-01T05:01:08;40.67;;;20.40;;
49890;SDS011;35780;55.568;37.492;2023-04-01T05:03:37;57.05;;;22.65;;
49890;SDS011;35780;55.568;37.492;2023-04-01T05:06:03;65.28;;;25.50;;
49890;SDS011;35780;55.568;37.492;2023-04-01T05:08:29;57.35;;;25.48;;
49890;SDS011;35780;55.568;37.492;2023-04-01T05:10:55;40.17;;;20.10;;
49890;SDS011;35780;55.568;37.492;2023-04-01T05:13:21;46.83;;;22.98;;
49890;SDS011;35780;55.568;37.492;2023-04-01T05:15:46;35.63;;;19.58;;
49890;SDS011;35780;55.568;37.492;2023-04-01T05:18:12;38.20;;;19.73;;
49890;SDS011;35780;55.568;37.492;2023-04-01T05:20:37;36.15;;;19.23;;
49890;SDS011;35780;55.568;37.492;2023-04-01T05:23:03;35.33;;;19.17;;
49890;SDS011;35780;55.568;37.492;2023-04-01T05:25:28;40.42;;;19.67;;
49890;SDS011;35780;55.568;37.492;2023-04-01T05:27:54;39.53;;;19.83;;
49890;SDS011;35780;55.568;37.492;2023-04-01T05:30:20;39.55;;;19.23;;
49890;SDS011;35780;55.568;37.492;2023-04-01T05:32:45;35.70;;;18.92;;
49890;SDS011;35780;55.568;37.492;2023-04-01T05:35:11;39.08;;;18.67;;
49890;SDS011;35780;55.568;37.492;2023-04-01T05:37:36;43.78;;;20.77;;
49890;SDS011;35780;55.568;37.492;2023-04-01T05:40:03;39.97;;;21.02;;
49890;SDS011;35780;55.568;37.492;2023-04-01T05:42:29;53.55;;;22.63;;
49890;SDS011;35780;55.568;37.492;2023-04-01T05:44:54;58.30;;;23.52;;
49890;SDS011;35780;55.568;37.492;2023-04-01T05:47:21;41.42;;;19.60;;
49890;SDS011;35780;55.568;37.492;2023-04-01T05:49:47;53.45;;;22.05;;
49890;SDS011;35780;55.568;37.492;2023-04-01T05:52:13;49.88;;;22.08;;
49890;SDS011;35780;55.568;37.492;2023-04-01T05:54:38;49.22;;;21.45;;
49890;SDS011;35780;55.568;37.492;2023-04-01T05:57:04;50.15;;;21.83;;
49890;SDS011;35780;55.568;37.492;2023-04-01T05:59:29;49.08;;;21.13;;
49890;SDS011;35780;55.568;37.492;2023-04-01T06:01:56;52.72;;;21.75;;
49890;SDS011;35780;55.568;37.492;2023-04-01T06:04:22;49.85;;;21.63;;
49890;SDS011;35780;55.568;37.492;2023-04-01T06:06:48;38.35;;;16.70;;
49890;SDS011;35780;55.568;37.492;2023-04-01T06:09:15;46.63;;;19.77;;
49890;SDS011;35780;55.568;37.492;2023-04-01T06:11:55;54.22;;;21.80;;
49890;SDS011;35780;55.568;37.492;2023-04-01T06:14:28;53.80;;;23.80;;
49890;SDS011;35780;55.568;37.492;2023-04-01T06:19:58;56.65;;;21.58;;
49890;SDS011;35780;55.568;37.492;2023-04-01T06:30:40;45.08;;;21.05;;
49890;SDS011;35780;55.568;37.492;2023-04-01T06:56:25;28.95;;;17.65;;
49890;SDS011;35780;55.568;37.492;2023-04-01T06:58:58;30.70;;;17.80;;
49890;SDS011;35780;55.568;37.492;2023-04-01T07:01:49;34.17;;;18.02;;
49890;SDS011;35780;55.568;37.492;2023-04-01T07:04:34;29.67;;;17.55;;
49890;SDS011;35780;55.568;37.492;2023-04-01T07:07:05;25.58;;;15.55;;
49890;SDS011;35780;55.568;37.492;2023-04-01T07:09:38;24.75;;;16.67;;
49890;SDS011;35780;55.568;37.492;2023-04-01T07:12:09;29.27;;;16.80;;
49890;SDS011;35780;55.568;37.492;2023-04-01T07:14:37;29.65;;;16.73;;
49890;SDS011;35780;55.568;37.492;2023-04-01T07:17:21;28.60;;;16.10;;
49890;SDS011;35780;55.568;37.492;2023-04-01T07:19:58;28.92;;;17.30;;
49890;SDS011;35780;55.568;37.492;2023-04-01T07:22:42;27.75;;;16.27;;
49890;SDS011;35780;55.568;37.492;2023-04-01T07:25:33;33.08;;;16.90;;
49890;SDS011;35780;55.568;37.492;2023-04-01T07:28:15;34.30;;;16.45;;
49890;SDS011;35780;55.568;37.492;2023-04-01T07:58:13;27.70;;;15.82;;
49890;SDS011;35780;55.568;37.492;2023-04-01T08:04:23;21.55;;;13.52;;
49890;SDS011;35780;55.568;37.492;2023-04-01T08:07:05;23.33;;;11.35;;
49890;SDS011;35780;55.568;37.492;2023-04-01T08:20:26;30.08;;;14.25;;
49890;SDS011;35780;55.568;37.492;2023-04-01T08:23:00;21.08;;;12.80;;
49890;SDS011;35780;55.568;37.492;2023-04-01T08:25:33;21.48;;;14.30;;
49890;SDS011;35780;55.568;37.492;2023-04-01T08:28:03;18.48;;;11.10;;
49890;SDS011;35780;55.568;37.492;2023-04-01T08:30:41;18.83;;;12.57;;
49890;SDS011;35780;55.568;37.492;2023-04-01T08:35:55;16.85;;;11.70;;
49890;SDS011;35780;55.568;37.492;2023-04-01T08:38:43;20.48;;;12.02;;
49890;SDS011;35780;55.568;37.492;2023-04-01T08:55:37;13.95;;;10.55;;
49890;SDS011;35780;55.568;37.492;2023-04-01T08:58:00;25.35;;;11.70;;
49890;SDS011;35780;55.568;37.492;2023-04-01T09:16:26;15.45;;;10.32;;
49890;SDS011;35780;55.568;37.492;2023-04-01T09:21:37;16.55;;;8.98;;
49890;SDS011;35780;55.568;37.492;2023-04-01T09:38:41;12.30;;;7.75;;
49890;SDS011;35780;55.568;37.492;2023-04-01T09:41:29;12.82;;;7.90;;
49890;SDS011;35780;55.568;37.492;2023-04-01T09:44:15;11.40;;;7.82;;
49890;SDS011;35780;55.568;37.492;2023-04-01T09:46:58;8.82;;;5.55;;
49890;SDS011;35780;55.568;37.492;2023-04-01T09:57:36;9.15;;;5.72;;
49890;SDS011;35780;55.568;37.492;2023-04-01T10:11:28;10.43;;;6.03;;
49890;SDS011;35780;55.568;37.492;2023-04-01T11:26:14;7.32;;;4.63;;
49890;SDS011;35780;55.568;37.492;2023-04-01T11:33:43;7.40;;;5.00;;
49890;SDS011;35780;55.568;37.492;2023-04-01T11:44:24;7.93;;;4.90;;
49890;SDS011;35780;55.568;37.492;2023-04-01T11:53:20;10.68;;;6.13;;
49890;SDS011;35780;55.568;37.492;2023-04-01T12:01:49;8.93;;;5.32;;
49890;SDS011;35780;55.568;37.492;2023-04-01T12:13:02;11.00;;;6.18;;
49890;SDS011;35780;55.568;37.492;2023-04-01T12:21:14;9.88;;;5.35;;
49890;SDS011;35780;55.568;37.492;2023-04-01T12:35:13;12.30;;;5.57;;
49890;SDS011;35780;55.568;37.492;2023-04-01T12:40:44;10.48;;;6.10;;
49890;SDS011;35780;55.568;37.492;2023-04-01T12:43:56;13.50;;;7.88;;
49890;SDS011;35780;55.568;37.492;2023-04-01T12:52:12;15.10;;;7.25;;
49890;SDS011;35780;55.568;37.492;2023-04-01T13:14:24;14.02;;;6.65;;
49890;SDS011;35780;55.568;37.492;2023-04-01T13:22:12;10.13;;;5.85;;
49890;SDS011;35780;55.568;37.492;2023-04-01T13:43:50;14.95;;;7.45;;
49890;SDS011;35780;55.568;37.492;2023-04-01T13:46:24;12.77;;;7.28;;
49890;SDS011;35780;55.568;37.492;2023-04-01T13:57:48;13.30;;;7.50;;
49890;SDS011;35780;55.568;37.492;2023-04-01T14:05:55;10.77;;;6.20;;
49890;SDS011;35780;55.568;37.492;2023-04-01T14:17:34;16.75;;;8.38;;
49890;SDS011;35780;55.568;37.492;2023-04-01T14:28:38;13.77;;;8.13;;
49890;SDS011;35780;55.568;37.492;2023-04-01T14:42:03;12.50;;;9.02;;
49890;SDS011;35780;55.568;37.492;2023-04-01T14:50:06;14.45;;;9.43;;
49890;SDS011;35780;55.568;37.492;2023-04-01T14:52:40;14.02;;;10.02;;
49890;SDS011;35780;55.568;37.492;2023-04-01T14:55:25;18.35;;;9.80;;
49890;SDS011;35780;55.568;37.492;2023-04-01T14:58:08;18.88;;;9.60;;
49890;SDS011;35780;55.568;37.492;2023-04-01T15:09:05;17.83;;;12.13;;
49890;SDS011;35780;55.568;37.492;2023-04-01T15:11:52;17.30;;;10.48;;
49890;SDS011;35780;55.568;37.492;2023-04-01T15:25:54;21.88;;;11.95;;
49890;SDS011;35780;55.568;37.492;2023-04-01T15:31:28;15.88;;;10.18;;
49890;SDS011;35780;55.568;37.492;2023-04-01T15:40:30;16.75;;;9.82;;
49890;SDS011;35780;55.568;37.492;2023-04-01T15:43:17;15.85;;;9.88;;
49890;SDS011;35780;55.568;37.492;2023-04-01T15:57:02;14.73;;;8.75;;
49890;SDS011;35780;55.568;37.492;2023-04-01T16:04:40;14.45;;;9.05;;
49890;SDS011;35780;55.568;37.492;2023-04-01T16:07:43;14.95;;;10.23;;
49890;SDS011;35780;55.568;37.492;2023-04-01T16:18:33;15.55;;;8.57;;
49890;SDS011;35780;55.568;37.492;2023-04-01T16:21:08;17.60;;;11.20;;
49890;SDS011;35780;55.568;37.492;2023-04-01T16:26:29;16.70;;;8.95;;
49890;SDS011;35780;55.568;37.492;2023-04-01T16:37:37;14.25;;;10.75;;
49890;SDS011;35780;55.568;37.492;2023-04-01T16:43:23;14.13;;;9.60;;
49890;SDS011;35780;55.568;37.492;2023-04-01T16:51:26;11.43;;;7.43;;
49890;SDS011;35780;55.568;37.492;2023-04-01T16:54:26;20.80;;;10.73;;
49890;SDS011;35780;55.568;37.492;2023-04-01T16:57:02;13.70;;;9.10;;
49890;SDS011;35780;55.568;37.492;2023-04-01T16:59:35;14.95;;;9.82;;
49890;SDS011;35780;55.568;37.492;2023-04-01T17:02:04;15.00;;;9.48;;
49890;SDS011;35780;55.568;37.492;2023-04-01T17:07:34;19.60;;;10.25;;
49890;SDS011;35780;55.568;37.492;2023-04-01T17:18:21;19.85;;;11.88;;
49890;SDS011;35780;55.568;37.492;2023-04-01T17:21:09;14.52;;;8.80;;
49890;SDS011;35780;55.568;37.492;2023-04-01T17:26:20;18.05;;;10.80;;
49890;SDS011;35780;55.568;37.492;2023-04-01T17:36:44;19.70;;;11.35;;
49890;SDS011;35780;55.568;37.492;2023-04-01T17:47:39;20.02;;;12.25;;
49890;SDS011;35780;55.568;37.492;2023-04-01T17:55:29;19.67;;;11.90;;
49890;SDS011;35780;55.568;37.492;2023-04-01T18:01:18;21.35;;;13.77;;
49890;SDS011;35780;55.568;37.492;2023-04-01T18:09:08;22.73;;;12.07;;
49890;SDS011;35780;55.568;37.492;2023-04-01T18:24:47;21.98;;;13.68;;
49890;SDS011;35780;55.568;37.492;2023-04-01T18:27:24;22.08;;;14.60;;
49890;SDS011;35780;55.568;37.492;2023-04-01T18:30:06;13.18;;;7.75;;
49890;SDS011;35780;55.568;37.492;2023-04-01T18:40:34;19.53;;;11.67;;
49890;SDS011;35780;55.568;37.492;2023-04-01T18:46:53;22.90;;;14.15;;
49890;SDS011;35780;55.568;37.492;2023-04-01T18:57:25;21.35;;;14.48;;
49890;SDS011;35780;55.568;37.492;2023-04-01T19:00:20;20.23;;;14.10;;
49890;SDS011;35780;55.568;37.492;2023-04-01T19:02:48;25.23;;;14.98;;
49890;SDS011;35780;55.568;37.492;2023-04-01T19:05:32;22.42;;;14.23;;
49890;SDS011;35780;55.568;37.492;2023-04-01T19:19:54;22.70;;;14.68;;
49890;SDS011;35780;55.568;37.492;2023-04-01T19:25:29;24.55;;;13.95;;
49890;SDS011;35780;55.568;37.492;2023-04-01T19:31:51;22.48;;;12.38;;
49890;SDS011;35780;55.568;37.492;2023-04-01T19:33:52;22.40;;;14.00;;
49890;SDS011;35780;55.568;37.492;2023-04-01T19:36:29;27.73;;;15.65;;
49890;SDS011;35780;55.568;37.492;2023-04-01T19:41:50;28.75;;;16.80;;
49890;SDS011;35780;55.568;37.492;2023-04-01T19:50:34;50.95;;;22.70;;
49890;SDS011;35780;55.568;37.492;2023-04-01T19:53:28;42.70;;;20.90;;
49890;SDS011;35780;55.568;37.492;2023-04-01T19:55:55;33.95;;;18.98;;
49890;SDS011;35780;55.568;37.492;2023-04-01T19:58:31;34.05;;;17.98;;
49890;SDS011;35780;55.568;37.492;2023-04-01T20:01:01;38.78;;;20.38;;
49890;SDS011;35780;55.568;37.492;2023-04-01T20:08:32;38.37;;;18.73;;
49890;SDS011;35780;55.568;37.492;2023-04-01T20:14:02;29.55;;;16.52;;
49890;SDS011;35780;55.568;37.492;2023-04-01T20:25:17;35.47;;;20.52;;
49890;SDS011;35780;55.568;37.492;2023-04-01T20:28:30;43.45;;;22.65;;
49890;SDS011;35780;55.568;37.492;2023-04-01T20:39:07;32.67;;;17.98;;
49890;SDS011;35780;55.568;37.492;2023-04-01T20:47:53;29.85;;;17.08;;
49890;SDS011;35780;55.568;37.492;2023-04-01T20:56:29;31.90;;;18.70;;
49890;SDS011;35780;55.568;37.492;2023-04-01T21:07:52;24.27;;;16.20;;
49890;SDS011;35780;55.568;37.492;2023-04-01T21:13:39;24.92;;;16.33;;
49890;SDS011;35780;55.568;37.492;2023-04-01T21:19:03;26.23;;;17.45;;
49890;SDS011;35780;55.568;37.492;2023-04-01T21:33:30;28.45;;;17.88;;
49890;SDS011;35780;55.568;37.492;2023-04-01T21:45:05;25.05;;;14.95;;
49890;SDS011;35780;55.568;37.492;2023-04-01T22:09:11;30.75;;;19.00;;
49890;SDS011;35780;55.568;37.492;2023-04-01T22:22:45;36.08;;;20.25;;
49890;SDS011;35780;55.568;37.492;2023-04-01T22:30:41;35.92;;;20.23;;
49890;SDS011;35780;55.568;37.492;2023-04-01T22:33:11;40.00;;;23.98;;
49890;SDS011;35780;55.568;37.492;2023-04-01T22:35:46;39.95;;;22.65;;
49890;SDS011;35780;55.568;37.492;2023-04-01T22:38:52;40.88;;;24.35;;
49890;SDS011;35780;55.568;37.492;2023-04-01T22:41:37;39.33;;;22.92;;
49890;SDS011;35780;55.568;37.492;2023-04-01T22:44:33;41.38;;;22.98;;
49890;SDS011;35780;55.568;37.492;2023-04-01T22:49:50;43.22;;;23.30;;
49890;SDS011;35780;55.568;37.492;2023-04-01T22:52:30;42.42;;;23.98;;
49890;SDS011;35780;55.568;37.492;2023-04-01T22:55:00;37.53;;;22.80;;
49890;SDS011;35780;55.568;37.492;2023-04-01T22:57:35;42.75;;;24.33;;
49890;SDS011;35780;55.568;37.492;2023-04-01T23:00:35;44.90;;;22.92;;
49890;SDS011;35780;55.568;37.492;2023-04-01T23:05:52;46.05;;;25.48;;
49890;SDS011;35780;55.568;37.492;2023-04-01T23:08:41;47.15;;;26.08;;
49890;SDS011;35780;55.568;37.492;2023-04-01T23:33:10;45.53;;;25.10;;
49890;SDS011;35780;55.568;37.492;2023-04-01T23:35:52;48.28;;;26.88;;
49890;SDS011;35780;55.568;37.492;2023-04-01T23:38:21;47.45;;;23.55;;
49890;SDS011;35780;55.568;37.492;2023-04-01T23:40:50;52.22;;;26.77;;
49890;SDS011;35780;55.568;37.492;2023-04-01T23:43:28;46.33;;;25.33;;
49890;SDS011;35780;55.568;37.492;2023-04-01T23:45:56;51.38;;;28.45;;
49890;SDS011;35780;55.568;37.492;2023-04-01T23:48:26;48.83;;;27.17;;
49890;SDS011;35780;55.568;37.492;2023-04-01T23:50:55;52.85;;;24.98;;
49890;SDS011;35780;55.568;37.492;2023-04-01T23:53:26;50.00;;;26.00;;
49890;SDS011;35780;55.568;37.492;2023-04-01T23:55:54;43.60;;;25.35;;
49890;SDS011;35780;55.568;37.492;2023-04-01T23:58:54;50.95;;;26.08;;
